Time;durP1;ratioP1;P1;durP2;ratioP2;P2;SDS_P1;SDS_P2;PMS_P1;PMS_P2;Temp;Humidity;BMP_temperature;BMP_pressure;BME280_temperature;BME280_humidity;BME280_pressure;Samples;Min_cycle;Max_cycle;Signal;HPM_P1;HPM_P2
2024/03/24 00:00:21;;;;;;;9.18;4.18;;;3.90;99.90;;;;;;4943654;28;20455;-66
2024/03/24 00:02:47;;;;;;;15.07;5.18;;;3.90;99.90;;;;;;4947343;28;20032;-65
2024/03/24 00:05:12;;;;;;;14.23;4.93;;;3.90;99.90;;;;;;4957267;28;20114;-66
2024/03/24 00:07:38;;;;;;;13.30;4.53;;;4.00;99.90;;;;;;4945663;28;20119;-66
2024/03/24 00:10:04;;;;;;;10.38;4.50;;;3.90;99.90;;;;;;4944999;28;20474;-64
2024/03/24 00:12:30;;;;;;;13.63;5.00;;;4.00;99.90;;;;;;4940887;28;20531;-64
2024/03/24 00:14:56;;;;;;;11.82;2.97;;;4.00;99.90;;;;;;4958642;28;20030;-64
2024/03/24 00:17:21;;;;;;;13.18;4.90;;;4.00;99.90;;;;;;4945197;28;20027;-64
2024/03/24 00:19:47;;;;;;;13.27;4.75;;;3.90;99.90;;;;;;4947048;28;20062;-64
2024/03/24 00:22:14;;;;;;;14.13;3.42;;;3.80;99.90;;;;;;4949546;28;20081;-64
2024/03/24 00:24:40;;;;;;;13.77;4.88;;;3.90;99.90;;;;;;4944848;28;20051;-64
2024/03/24 00:27:05;;;;;;;10.48;4.53;;;3.90;99.90;;;;;;4945896;28;20031;-64
2024/03/24 00:29:31;;;;;;;11.65;5.18;;;3.90;99.90;;;;;;4952588;28;20531;-64
2024/03/24 00:31:57;;;;;;;13.68;4.43;;;3.90;99.90;;;;;;4947776;28;20084;-65
2024/03/24 00:34:23;;;;;;;13.02;3.88;;;4.00;99.90;;;;;;4943855;28;20023;-65
2024/03/24 00:36:48;;;;;;;14.05;5.47;;;4.00;99.90;;;;;;4958905;28;20031;-65
2024/03/24 00:39:14;;;;;;;12.98;4.15;;;3.90;99.90;;;;;;4939189;28;20561;-64
2024/03/24 00:41:40;;;;;;;12.10;4.82;;;3.90;99.90;;;;;;4953075;28;20031;-65
2024/03/24 00:44:06;;;;;;;16.17;6.18;;;3.80;99.90;;;;;;4950125;28;20076;-64
2024/03/24 00:46:31;;;;;;;14.80;4.97;;;3.70;99.90;;;;;;4951295;28;20497;-65
2024/03/24 00:48:57;;;;;;;10.00;4.05;;;3.70;99.90;;;;;;4948927;28;20023;-64
2024/03/24 00:51:23;;;;;;;16.50;6.38;;;3.70;99.90;;;;;;4949559;28;20027;-65
2024/03/24 00:53:49;;;;;;;14.23;5.05;;;3.80;99.90;;;;;;4944913;28;20406;-64
2024/03/24 00:56:14;;;;;;;14.93;6.38;;;3.90;99.90;;;;;;4947094;28;20130;-64
2024/03/24 00:58:40;;;;;;;17.52;5.38;;;3.90;99.90;;;;;;4946332;28;20035;-64
2024/03/24 01:01:06;;;;;;;14.00;5.65;;;3.80;99.90;;;;;;4951946;28;20042;-63
2024/03/24 01:03:32;;;;;;;11.60;5.28;;;3.80;99.90;;;;;;4946763;28;20038;-65
2024/03/24 01:05:58;;;;;;;12.05;4.28;;;3.90;99.90;;;;;;4954127;28;20077;-64
2024/03/24 01:08:23;;;;;;;12.85;5.13;;;3.90;99.90;;;;;;4946992;28;20032;-64
2024/03/24 01:10:49;;;;;;;13.73;3.95;;;3.90;99.90;;;;;;4944409;28;20316;-65
2024/03/24 01:13:14;;;;;;;12.52;4.97;;;3.80;99.90;;;;;;4941660;28;20517;-65
2024/03/24 01:15:44;;;;;;;13.43;5.72;;;3.80;99.90;;;;;;4948124;28;20077;-65
2024/03/24 01:18:10;;;;;;;12.50;5.68;;;3.90;99.90;;;;;;4944092;28;20562;-65
2024/03/24 01:20:36;;;;;;;14.32;5.93;;;3.90;99.90;;;;;;4951862;28;20129;-65
2024/03/24 01:23:01;;;;;;;13.18;5.53;;;4.00;99.90;;;;;;4944251;28;20632;-66
2024/03/24 01:25:27;;;;;;;10.18;4.70;;;4.10;99.90;;;;;;4946948;28;20047;-66
2024/03/24 01:27:52;;;;;;;12.15;5.85;;;4.10;99.90;;;;;;4949065;28;20023;-65
2024/03/24 01:30:18;;;;;;;14.10;5.50;;;4.20;99.90;;;;;;4945573;28;20024;-65
2024/03/24 01:32:44;;;;;;;13.13;4.78;;;4.10;99.90;;;;;;4949527;28;20088;-65
2024/03/24 01:35:09;;;;;;;13.10;5.30;;;4.10;99.90;;;;;;4945909;28;20106;-66
2024/03/24 01:37:36;;;;;;;16.50;6.63;;;4.20;99.90;;;;;;4952690;28;20031;-64
2024/03/24 01:40:02;;;;;;;13.77;5.25;;;4.20;99.90;;;;;;4953684;28;20085;-65
2024/03/24 01:42:28;;;;;;;10.40;4.75;;;4.30;99.90;;;;;;4945330;28;20039;-64
2024/03/24 01:44:54;;;;;;;13.45;5.80;;;4.30;99.90;;;;;;4949453;28;20034;-64
2024/03/24 01:47:20;;;;;;;19.17;7.13;;;4.30;99.90;;;;;;4943983;28;20035;-64
2024/03/24 01:49:45;;;;;;;12.93;5.32;;;4.30;99.90;;;;;;4938545;28;20454;-65
2024/03/24 01:52:13;;;;;;;11.18;4.80;;;4.30;99.90;;;;;;4952716;28;20318;-66
2024/03/24 01:54:39;;;;;;;20.05;7.28;;;4.30;99.90;;;;;;4948017;28;20060;-64
2024/03/24 01:57:05;;;;;;;14.23;6.30;;;4.40;99.90;;;;;;4949222;28;20031;-66
2024/03/24 01:59:31;;;;;;;15.75;6.75;;;4.40;99.90;;;;;;4956609;28;20038;-66
2024/03/24 02:01:57;;;;;;;14.07;5.68;;;4.40;99.90;;;;;;4946805;28;20426;-66
2024/03/24 02:04:23;;;;;;;11.18;4.75;;;4.40;99.90;;;;;;4942182;28;20383;-66
2024/03/24 02:06:48;;;;;;;16.25;6.10;;;4.40;99.90;;;;;;4944586;28;20023;-66
2024/03/24 02:09:14;;;;;;;15.48;6.97;;;4.40;99.90;;;;;;4960521;28;20027;-66
2024/03/24 02:11:40;;;;;;;15.20;5.75;;;4.40;99.90;;;;;;4948363;28;20093;-66
2024/03/24 02:14:05;;;;;;;13.90;6.32;;;4.40;99.90;;;;;;4938703;28;20390;-65
2024/03/24 02:16:31;;;;;;;15.50;6.75;;;4.40;99.90;;;;;;4942415;29;20482;-65
2024/03/24 02:18:56;;;;;;;13.65;6.78;;;4.50;99.90;;;;;;4942072;28;20043;-65
2024/03/24 02:21:22;;;;;;;13.88;6.35;;;4.40;99.90;;;;;;4944720;29;20429;-66
2024/03/24 02:23:51;;;;;;;13.73;6.53;;;4.50;99.90;;;;;;4944359;29;20050;-65
2024/03/24 02:26:17;;;;;;;11.82;4.95;;;4.40;99.90;;;;;;4939960;29;20028;-65
2024/03/24 02:28:43;;;;;;;15.30;6.70;;;4.40;99.90;;;;;;4942057;29;20042;-65
2024/03/24 02:31:09;;;;;;;14.85;5.88;;;4.40;99.90;;;;;;4944739;28;20039;-65
2024/03/24 02:33:34;;;;;;;15.35;6.38;;;4.40;99.90;;;;;;4941195;29;20036;-65
2024/03/24 02:36:00;;;;;;;14.98;6.32;;;4.50;99.90;;;;;;4959765;28;20019;-65
2024/03/24 02:38:26;;;;;;;15.35;5.82;;;4.40;99.90;;;;;;4941914;28;20499;-65
2024/03/24 02:40:51;;;;;;;20.13;6.65;;;4.40;99.90;;;;;;4942982;29;20465;-65
2024/03/24 02:43:17;;;;;;;12.32;5.15;;;4.40;99.90;;;;;;4944666;28;20118;-65
2024/03/24 02:45:43;;;;;;;13.65;6.05;;;4.40;99.90;;;;;;4943501;28;20455;-65
2024/03/24 02:48:08;;;;;;;16.80;6.60;;;4.30;99.90;;;;;;4941256;29;20551;-65
2024/03/24 02:50:34;;;;;;;16.02;8.07;;;4.20;99.90;;;;;;4943792;28;20370;-65
2024/03/24 02:53:02;;;;;;;13.07;5.72;;;4.20;99.90;;;;;;4947492;28;20122;-65
2024/03/24 02:55:28;;;;;;;12.35;5.30;;;4.20;99.90;;;;;;4943559;29;20474;-64
2024/03/24 02:57:54;;;;;;;14.23;6.90;;;4.20;99.90;;;;;;4940423;28;20034;-65
2024/03/24 03:00:20;;;;;;;11.18;4.85;;;4.10;99.90;;;;;;4942495;29;20111;-64
2024/03/24 03:02:46;;;;;;;17.13;6.32;;;4.10;99.90;;;;;;4942652;28;20040;-64
2024/03/24 03:05:12;;;;;;;16.42;6.32;;;4.10;99.90;;;;;;4942489;28;20106;-65
2024/03/24 03:07:38;;;;;;;17.17;7.75;;;4.10;99.90;;;;;;4942319;28;20510;-65
2024/03/24 03:10:07;;;;;;;20.20;8.48;;;4.10;99.90;;;;;;4943252;29;20398;-65
2024/03/24 03:12:36;;;;;;;17.15;8.32;;;4.10;99.90;;;;;;4950612;28;20514;-65
2024/03/24 03:15:05;;;;;;;13.88;5.20;;;4.10;99.90;;;;;;4955451;28;20487;-66
2024/03/24 03:17:31;;;;;;;17.30;8.50;;;4.00;99.90;;;;;;4940148;29;20506;-66
2024/03/24 03:19:59;;;;;;;17.85;7.63;;;4.10;99.90;;;;;;4950585;29;20116;-65
2024/03/24 03:22:25;;;;;;;17.60;7.50;;;4.00;99.90;;;;;;4940122;28;20039;-65
2024/03/24 03:24:50;;;;;;;16.52;7.65;;;4.00;99.90;;;;;;4942663;28;20050;-66
2024/03/24 03:27:16;;;;;;;15.48;7.22;;;4.00;99.90;;;;;;4946269;28;20185;-65
2024/03/24 03:29:42;;;;;;;17.48;8.80;;;4.00;99.90;;;;;;4941798;28;20043;-65
2024/03/24 03:32:07;;;;;;;19.52;7.70;;;4.00;99.90;;;;;;4943030;28;20028;-65
2024/03/24 03:34:33;;;;;;;22.08;8.00;;;4.00;99.90;;;;;;4946814;29;20055;-65
2024/03/24 03:36:58;;;;;;;16.80;8.23;;;4.00;99.90;;;;;;4952714;28;20398;-65
2024/03/24 03:39:24;;;;;;;17.00;6.68;;;4.00;99.90;;;;;;4940542;28;20032;-67
2024/03/24 03:41:52;;;;;;;17.13;8.13;;;3.90;99.90;;;;;;4940472;29;20101;-67
2024/03/24 03:44:18;;;;;;;17.00;8.20;;;3.90;99.90;;;;;;4944680;28;20032;-66
2024/03/24 03:46:43;;;;;;;13.88;5.70;;;3.90;99.90;;;;;;4942543;28;20386;-66
2024/03/24 03:49:14;;;;;;;11.90;5.22;;;3.90;99.90;;;;;;4941185;29;20024;-67
2024/03/24 03:51:39;;;;;;;16.35;5.95;;;3.80;99.90;;;;;;4937634;29;20035;-66
2024/03/24 03:54:05;;;;;;;11.75;5.07;;;3.80;99.90;;;;;;4940862;28;20052;-66
2024/03/24 03:56:31;;;;;;;12.88;5.00;;;3.70;99.90;;;;;;4951751;28;20119;-66
2024/03/24 03:58:56;;;;;;;13.38;4.25;;;3.70;99.90;;;;;;4943928;28;20039;-66
2024/03/24 04:01:22;;;;;;;11.10;4.20;;;3.70;99.90;;;;;;4949336;28;20050;-67
2024/03/24 04:03:48;;;;;;;12.27;5.22;;;3.70;99.90;;;;;;4940391;28;20047;-66
2024/03/24 04:06:14;;;;;;;12.93;5.15;;;3.70;99.90;;;;;;4938886;28;20077;-66
2024/03/24 04:08:40;;;;;;;9.30;3.47;;;3.70;99.90;;;;;;4945361;28;20106;-67
2024/03/24 04:11:07;;;;;;;16.23;5.45;;;3.70;99.90;;;;;;4951779;28;20024;-67
2024/03/24 04:13:33;;;;;;;12.95;5.65;;;3.70;99.90;;;;;;4939304;28;20035;-66
2024/03/24 04:15:59;;;;;;;14.35;5.82;;;3.70;99.90;;;;;;4943440;28;20031;-67
2024/03/24 04:18:24;;;;;;;13.93;5.05;;;3.60;99.90;;;;;;4946557;28;20375;-67
2024/03/24 04:20:50;;;;;;;13.05;5.65;;;3.60;99.90;;;;;;4947701;28;20035;-67
2024/03/24 04:23:15;;;;;;;13.77;5.50;;;3.60;99.90;;;;;;4939065;28;20120;-67
2024/03/24 04:25:41;;;;;;;10.57;4.22;;;3.60;99.90;;;;;;4939469;29;20078;-67
2024/03/24 04:28:07;;;;;;;13.02;5.60;;;3.60;99.90;;;;;;4941253;28;20532;-67
2024/03/24 04:30:32;;;;;;;13.15;4.50;;;3.70;99.90;;;;;;4948621;28;20405;-66
2024/03/24 04:32:59;;;;;;;12.65;5.85;;;3.70;99.90;;;;;;4940162;28;20027;-66
2024/03/24 04:35:25;;;;;;;13.63;5.75;;;3.70;99.90;;;;;;4943907;28;20098;-66
2024/03/24 04:37:51;;;;;;;8.70;3.63;;;3.70;99.90;;;;;;4946052;28;20059;-66
2024/03/24 04:40:16;;;;;;;14.23;5.72;;;3.70;99.90;;;;;;4941213;28;20019;-66
2024/03/24 04:42:43;;;;;;;12.60;5.50;;;3.80;99.90;;;;;;4946219;28;20057;-66
2024/03/24 04:45:09;;;;;;;17.63;6.60;;;3.80;99.90;;;;;;4947401;28;20027;-66
2024/03/24 04:47:34;;;;;;;13.52;5.60;;;3.80;99.90;;;;;;4940047;29;20448;-66
2024/03/24 04:50:00;;;;;;;20.55;6.22;;;3.80;99.90;;;;;;4948959;28;20397;-65
2024/03/24 04:52:25;;;;;;;16.25;7.28;;;3.80;99.90;;;;;;4938305;28;20079;-66
2024/03/24 04:54:51;;;;;;;22.83;7.20;;;3.80;99.90;;;;;;4948901;29;20043;-66
2024/03/24 04:57:17;;;;;;;13.85;6.05;;;3.80;99.90;;;;;;4941285;28;20044;-66
2024/03/24 04:59:43;;;;;;;17.95;6.75;;;3.90;99.90;;;;;;4933490;28;20028;-66
2024/03/24 05:02:09;;;;;;;21.42;7.88;;;3.90;99.90;;;;;;4943028;28;20023;-66
2024/03/24 05:04:35;;;;;;;23.38;8.80;;;3.90;99.90;;;;;;4942625;28;20498;-67
2024/03/24 05:07:02;;;;;;;20.63;9.13;;;3.80;99.90;;;;;;4940064;29;20031;-66
2024/03/24 05:09:27;;;;;;;19.60;7.15;;;3.90;99.90;;;;;;4959716;28;20047;-66
2024/03/24 05:11:53;;;;;;;16.40;7.00;;;3.90;99.90;;;;;;4944579;28;20085;-66
2024/03/24 05:14:19;;;;;;;20.10;8.95;;;3.90;99.90;;;;;;4938340;28;20601;-64
2024/03/24 05:16:44;;;;;;;12.52;5.68;;;3.90;99.90;;;;;;4942482;29;20031;-66
2024/03/24 05:19:10;;;;;;;14.93;5.75;;;3.90;99.90;;;;;;4940712;28;20106;-65
2024/03/24 05:21:40;;;;;;;16.30;7.50;;;3.90;99.90;;;;;;4939541;29;20028;-66
2024/03/24 05:24:06;;;;;;;11.73;5.65;;;4.00;99.90;;;;;;4939450;29;20445;-66
2024/03/24 05:26:33;;;;;;;12.40;5.63;;;4.00;99.90;;;;;;4937516;28;20111;-65
2024/03/24 05:29:02;;;;;;;12.35;5.82;;;4.00;99.90;;;;;;4941233;28;20493;-65
2024/03/24 05:31:27;;;;;;;14.40;6.40;;;4.00;99.90;;;;;;4939570;29;20024;-66
2024/03/24 05:33:53;;;;;;;12.13;4.60;;;4.00;99.90;;;;;;4945572;28;20077;-66
2024/03/24 05:36:18;;;;;;;13.80;5.20;;;4.00;99.90;;;;;;4941430;28;20024;-66
2024/03/24 05:38:44;;;;;;;14.63;5.47;;;4.00;99.90;;;;;;4944899;28;20355;-66
2024/03/24 05:41:10;;;;;;;11.68;4.00;;;4.00;99.90;;;;;;4949098;28;20062;-66
2024/03/24 05:43:36;;;;;;;13.68;5.50;;;4.10;99.90;;;;;;4941290;28;20153;-65
2024/03/24 05:46:04;;;;;;;17.40;6.35;;;4.00;99.90;;;;;;4944597;28;20028;-65
2024/03/24 05:48:29;;;;;;;12.95;5.25;;;4.00;99.90;;;;;;4949518;29;20023;-65
2024/03/24 05:50:59;;;;;;;11.23;4.40;;;4.00;99.90;;;;;;4941446;29;20042;-66
2024/03/24 05:53:25;;;;;;;17.77;6.28;;;4.10;99.90;;;;;;4947588;28;20048;-66
2024/03/24 05:55:51;;;;;;;13.65;5.60;;;4.10;99.90;;;;;;4944674;28;20114;-66
2024/03/24 05:58:20;;;;;;;12.27;5.00;;;4.10;99.90;;;;;;4936880;28;20039;-65
2024/03/24 06:00:49;;;;;;;11.50;4.50;;;4.10;99.90;;;;;;4944110;28;20205;-66
2024/03/24 06:03:14;;;;;;;11.75;4.07;;;4.10;99.90;;;;;;4939661;28;20039;-64
2024/03/24 06:05:40;;;;;;;9.15;3.95;;;4.10;99.90;;;;;;4939485;28;20036;-65
2024/03/24 06:08:10;;;;;;;12.05;4.32;;;4.20;99.90;;;;;;4957233;28;20024;-65
2024/03/24 06:10:36;;;;;;;10.30;4.93;;;4.20;99.90;;;;;;4951455;28;20092;-66
2024/03/24 06:13:02;;;;;;;10.68;3.72;;;4.20;99.90;;;;;;4941469;28;20059;-65
2024/03/24 06:15:28;;;;;;;7.28;2.67;;;4.20;99.90;;;;;;4938103;28;20056;-65
2024/03/24 06:17:54;;;;;;;11.15;4.00;;;4.20;99.90;;;;;;4943752;28;20058;-65
2024/03/24 06:20:19;;;;;;;10.07;3.72;;;4.30;99.90;;;;;;4940256;29;20031;-65
2024/03/24 06:22:45;;;;;;;8.35;3.53;;;4.30;99.90;;;;;;4944066;28;20031;-65
2024/03/24 06:25:10;;;;;;;7.07;2.58;;;4.30;99.90;;;;;;4941130;28;20115;-65
2024/03/24 06:27:36;;;;;;;7.85;3.05;;;4.30;99.90;;;;;;4937051;28;20050;-66
2024/03/24 06:30:02;;;;;;;10.35;3.17;;;4.30;99.90;;;;;;4948924;28;20513;-66
2024/03/24 06:32:28;;;;;;;11.73;3.38;;;4.20;99.90;;;;;;4941676;29;20036;-67
2024/03/24 06:34:54;;;;;;;8.27;3.35;;;4.10;99.90;;;;;;4943753;28;20034;-67
2024/03/24 06:37:19;;;;;;;9.43;3.92;;;4.10;99.90;;;;;;4964539;28;20028;-69
2024/03/24 06:39:45;;;;;;;8.60;3.38;;;4.00;99.90;;;;;;4947513;28;20074;-67
2024/03/24 06:42:11;;;;;;;6.43;2.08;;;4.00;99.90;;;;;;4943518;28;20095;-66
2024/03/24 06:44:37;;;;;;;9.80;4.05;;;4.00;99.90;;;;;;4941332;28;20085;-66
2024/03/24 06:47:06;;;;;;;9.10;3.38;;;4.00;99.90;;;;;;4943318;29;20051;-66
2024/03/24 06:49:32;;;;;;;12.52;3.67;;;4.00;99.90;;;;;;4941728;28;20035;-67
2024/03/24 06:51:57;;;;;;;8.90;3.78;;;4.00;99.90;;;;;;4941890;28;20028;-66
2024/03/24 06:54:23;;;;;;;10.65;3.75;;;4.10;99.90;;;;;;4942423;28;20051;-66
2024/03/24 06:56:49;;;;;;;7.63;3.20;;;4.10;99.90;;;;;;4946410;28;20047;-66
2024/03/24 06:59:14;;;;;;;9.90;4.38;;;4.10;99.90;;;;;;4943952;28;20431;-66
2024/03/24 07:01:40;;;;;;;12.85;4.72;;;4.20;99.90;;;;;;4941698;28;20692;-66
2024/03/24 07:04:06;;;;;;;8.50;3.33;;;4.20;99.90;;;;;;4941052;28;20490;-65
2024/03/24 07:06:32;;;;;;;12.52;4.88;;;4.20;99.90;;;;;;4940086;29;20057;-65
2024/03/24 07:08:58;;;;;;;10.55;4.45;;;4.20;99.90;;;;;;4962025;28;20030;-67
2024/03/24 07:11:24;;;;;;;8.57;4.43;;;4.30;99.90;;;;;;4942049;28;20031;-66
2024/03/24 07:13:49;;;;;;;9.52;3.85;;;4.20;99.90;;;;;;4940897;29;20046;-67
2024/03/24 07:16:16;;;;;;;14.68;3.75;;;4.20;99.90;;;;;;4940175;29;20115;-66
2024/03/24 07:18:41;;;;;;;14.88;3.95;;;4.20;99.90;;;;;;4943144;28;20028;-66
2024/03/24 07:21:07;;;;;;;6.68;3.17;;;4.20;99.90;;;;;;4942962;29;20114;-66
2024/03/24 07:23:33;;;;;;;9.05;3.65;;;4.20;99.90;;;;;;4947331;29;20034;-67
2024/03/24 07:25:59;;;;;;;9.18;2.95;;;4.20;99.90;;;;;;4938798;28;20024;-66
2024/03/24 07:28:24;;;;;;;8.45;3.15;;;4.20;99.90;;;;;;4939905;29;20031;-66
2024/03/24 07:30:50;;;;;;;7.32;2.67;;;4.20;99.90;;;;;;4942647;28;20024;-66
2024/03/24 07:33:15;;;;;;;4.88;1.92;;;4.20;99.90;;;;;;4938942;29;20430;-65
2024/03/24 07:35:41;;;;;;;7.32;2.25;;;6.10;99.90;;;;;;4958629;28;20028;-66
2024/03/24 07:38:07;;;;;;;5.13;2.13;;;4.20;99.90;;;;;;4948039;28;20492;-65
2024/03/24 07:40:33;;;;;;;6.03;2.28;;;4.10;99.90;;;;;;4952872;28;20459;-66
2024/03/24 07:42:58;;;;;;;10.35;3.33;;;4.10;99.90;;;;;;4952161;28;20015;-65
2024/03/24 07:45:24;;;;;;;8.93;3.13;;;4.10;99.90;;;;;;4953132;28;20498;-65
2024/03/24 07:47:51;;;;;;;7.50;2.75;;;4.10;99.90;;;;;;4952506;28;20051;-66
2024/03/24 07:50:16;;;;;;;7.88;2.38;;;4.20;99.90;;;;;;4944878;28;20494;-65
2024/03/24 07:52:42;;;;;;;9.93;2.90;;;4.20;99.90;;;;;;4942220;28;20035;-65
2024/03/24 07:55:08;;;;;;;7.28;2.15;;;4.20;99.90;;;;;;4941203;28;20028;-65
2024/03/24 07:57:34;;;;;;;9.57;3.10;;;4.20;99.90;;;;;;4937117;28;20035;-65
2024/03/24 08:00:00;;;;;;;7.35;2.75;;;4.30;99.90;;;;;;4942192;29;20031;-66
2024/03/24 08:02:25;;;;;;;7.78;2.95;;;4.30;99.90;;;;;;4942520;28;20442;-65
2024/03/24 08:04:51;;;;;;;8.38;2.40;;;4.30;99.90;;;;;;4941586;28;20474;-66
2024/03/24 08:07:17;;;;;;;9.38;2.83;;;4.40;99.90;;;;;;4944361;28;20031;-66
2024/03/24 08:09:42;;;;;;;7.20;2.60;;;4.50;99.90;;;;;;4982951;28;20070;-68
2024/03/24 08:12:08;;;;;;;7.00;2.42;;;4.50;99.90;;;;;;4945781;28;20032;-67
2024/03/24 08:14:34;;;;;;;7.28;2.83;;;4.50;99.90;;;;;;4935086;28;20024;-66
2024/03/24 08:17:00;;;;;;;8.95;2.65;;;4.40;99.90;;;;;;4934818;28;20063;-67
2024/03/24 08:19:25;;;;;;;9.55;3.38;;;4.40;99.90;;;;;;4935304;29;20492;-67
2024/03/24 08:21:51;;;;;;;8.45;2.60;;;4.30;99.90;;;;;;4933006;28;20095;-67
2024/03/24 08:24:18;;;;;;;8.68;3.50;;;4.20;99.90;;;;;;4944667;28;20069;-66
2024/03/24 08:26:44;;;;;;;15.05;3.80;;;4.10;99.90;;;;;;4940369;28;20439;-66
2024/03/24 08:29:09;;;;;;;8.32;3.15;;;4.00;99.90;;;;;;4946377;28;20371;-67
2024/03/24 08:31:35;;;;;;;9.30;3.42;;;3.90;99.90;;;;;;4960555;28;20027;-66
2024/03/24 08:34:01;;;;;;;8.63;3.30;;;3.90;99.90;;;;;;4948466;28;20110;-66
2024/03/24 08:36:26;;;;;;;9.23;4.40;;;3.80;99.90;;;;;;4935798;28;20058;-66
2024/03/24 08:38:52;;;;;;;8.27;2.72;;;3.80;99.90;;;;;;4945412;28;20398;-66
2024/03/24 08:41:18;;;;;;;13.55;3.35;;;3.70;99.90;;;;;;4947188;28;20071;-66
2024/03/24 08:43:43;;;;;;;8.25;3.05;;;3.70;99.90;;;;;;4949033;28;20023;-66
2024/03/24 08:46:09;;;;;;;11.60;4.72;;;3.80;99.90;;;;;;4957626;28;20114;-66
2024/03/24 08:48:35;;;;;;;11.07;3.53;;;3.90;99.90;;;;;;4956533;28;20121;-65
2024/03/24 08:51:00;;;;;;;11.65;3.67;;;4.00;99.90;;;;;;4943710;28;20934;-66
2024/03/24 08:53:26;;;;;;;14.07;3.92;;;3.90;99.90;;;;;;4945736;28;20047;-66
2024/03/24 08:55:52;;;;;;;10.80;4.22;;;4.00;99.90;;;;;;4940936;29;20039;-66
2024/03/24 08:58:17;;;;;;;6.70;2.25;;;4.00;99.90;;;;;;4943961;28;20027;-66
2024/03/24 09:00:47;;;;;;;11.75;4.97;;;4.20;99.90;;;;;;4936451;29;20036;-67
2024/03/24 09:03:13;;;;;;;12.38;4.53;;;4.40;99.90;;;;;;4944017;28;20022;-66
2024/03/24 09:05:38;;;;;;;8.82;3.38;;;4.70;99.90;;;;;;4941949;28;20468;-66
2024/03/24 09:08:04;;;;;;;9.13;3.20;;;5.30;99.90;;;;;;4954215;28;20027;-66
2024/03/24 09:10:30;;;;;;;8.70;3.40;;;5.80;99.90;;;;;;4945500;28;20040;-66
2024/03/24 09:12:55;;;;;;;9.07;3.75;;;6.00;99.90;;;;;;4946363;28;20027;-66
2024/03/24 09:15:21;;;;;;;9.93;4.00;;;6.10;99.90;;;;;;4945773;28;20054;-66
2024/03/24 09:17:47;;;;;;;11.98;6.30;;;6.30;99.90;;;;;;4946737;28;20118;-64
2024/03/24 09:20:12;;;;;;;14.38;5.70;;;6.30;99.90;;;;;;4946171;28;20026;-67
2024/03/24 09:22:38;;;;;;;14.52;5.97;;;6.20;99.90;;;;;;4939212;28;20023;-66
2024/03/24 09:25:04;;;;;;;13.40;4.97;;;6.10;99.90;;;;;;4944067;28;20217;-65
2024/03/24 09:27:30;;;;;;;10.88;5.22;;;6.40;99.90;;;;;;4937288;28;20093;-65
2024/03/24 09:29:55;;;;;;;12.88;4.50;;;7.10;99.90;;;;;;4933265;28;20593;-66
2024/03/24 09:32:21;;;;;;;12.63;4.50;;;7.70;99.90;;;;;;4942170;28;20032;-66
2024/03/24 09:34:48;;;;;;;14.65;4.78;;;7.70;99.90;;;;;;4943429;28;20429;-66
2024/03/24 09:37:14;;;;;;;11.80;5.28;;;7.30;99.90;;;;;;4953262;28;20359;-66
2024/03/24 09:39:40;;;;;;;12.00;5.55;;;6.90;99.90;;;;;;4948004;28;20034;-66
2024/03/24 09:42:08;;;;;;;14.27;5.57;;;6.80;99.90;;;;;;4939117;28;20027;-66
2024/03/24 09:44:35;;;;;;;11.73;5.20;;;7.90;99.90;;;;;;4949564;28;20042;-64
2024/03/24 09:47:00;;;;;;;11.05;4.70;;;7.90;99.90;;;;;;4940771;28;20062;-64
2024/03/24 09:49:27;;;;;;;14.73;5.72;;;8.80;99.90;;;;;;4940699;28;20032;-66
2024/03/24 09:51:54;;;;;;;11.80;5.25;;;8.90;99.90;;;;;;4934023;28;20110;-66
2024/03/24 09:54:19;;;;;;;15.50;6.25;;;8.60;99.90;;;;;;4943425;28;20051;-64
2024/03/24 09:56:46;;;;;;;16.42;6.43;;;8.60;99.90;;;;;;4944815;28;20040;-64
2024/03/24 09:59:11;;;;;;;13.75;5.30;;;8.70;99.90;;;;;;4939832;28;20394;-64
2024/03/24 10:01:38;;;;;;;11.57;4.65;;;8.60;99.90;;;;;;4941083;28;20031;-64
2024/03/24 10:04:04;;;;;;;14.30;5.45;;;8.30;99.90;;;;;;4945211;29;20385;-66
2024/03/24 10:06:31;;;;;;;11.90;5.13;;;8.10;99.90;;;;;;4937698;28;20090;-66
2024/03/24 10:08:56;;;;;;;14.82;5.20;;;7.90;99.90;;;;;;4944380;28;20024;-66
2024/03/24 10:11:35;;;;;;;11.75;4.00;;;8.00;99.90;;;;;;4936802;28;20513;-66
2024/03/24 10:14:03;;;;;;;16.45;6.00;;;7.70;99.90;;;;;;4933898;29;20042;-66
2024/03/24 10:16:30;;;;;;;9.85;4.13;;;7.80;99.90;;;;;;4936451;29;20040;-66
2024/03/24 10:18:56;;;;;;;11.13;4.75;;;7.80;99.90;;;;;;4935388;29;20046;-66
2024/03/24 10:21:22;;;;;;;11.40;5.03;;;8.00;99.90;;;;;;4943134;28;20500;-66
2024/03/24 10:23:48;;;;;;;15.20;4.45;;;8.00;99.90;;;;;;4941533;28;20031;-66
2024/03/24 10:26:20;;;;;;;13.35;4.32;;;8.30;99.90;;;;;;4962136;28;20040;-64
2024/03/24 10:28:50;;;;;;;13.10;4.10;;;9.20;99.90;;;;;;4941020;28;20031;-64
2024/03/24 10:31:17;;;;;;;11.38;3.90;;;10.20;99.90;;;;;;4939525;29;20031;-64
2024/03/24 10:33:44;;;;;;;13.00;4.18;;;10.20;99.90;;;;;;4940843;29;20176;-64
2024/03/24 10:36:09;;;;;;;11.75;4.70;;;10.50;99.90;;;;;;4948221;28;20073;-64
2024/03/24 10:38:36;;;;;;;9.82;3.50;;;10.80;99.90;;;;;;4940591;29;20494;-66
2024/03/24 10:41:04;;;;;;;9.07;3.70;;;10.30;99.90;;;;;;4942391;28;20035;-66
2024/03/24 10:43:30;;;;;;;14.57;5.35;;;9.70;99.90;;;;;;4937504;29;20051;-66
2024/03/24 10:45:57;;;;;;;12.30;4.07;;;8.90;99.90;;;;;;4936069;28;20038;-65
2024/03/24 10:48:30;;;;;;;13.10;4.32;;;8.50;99.90;;;;;;4938825;28;20027;-66
2024/03/24 10:50:56;;;;;;;15.77;5.07;;;8.20;99.90;;;;;;4937912;29;20027;-67
2024/03/24 10:53:25;;;;;;;15.52;5.15;;;7.90;99.90;;;;;;4941530;28;20101;-65
2024/03/24 10:55:52;;;;;;;14.13;4.80;;;7.70;99.90;;;;;;4943769;28;20035;-65
2024/03/24 10:58:21;;;;;;;20.60;4.40;;;7.40;99.90;;;;;;4948558;28;20513;-65
2024/03/24 11:00:48;;;;;;;10.02;3.70;;;7.20;99.90;;;;;;4940250;28;20073;-65
2024/03/24 11:03:14;;;;;;;11.27;3.60;;;6.90;99.90;;;;;;4944668;28;20019;-67
2024/03/24 11:05:44;;;;;;;16.88;4.82;;;6.90;99.90;;;;;;4941576;28;20071;-68
2024/03/24 11:08:13;;;;;;;10.48;4.35;;;7.00;99.90;;;;;;4953198;28;20034;-65
2024/03/24 11:10:45;;;;;;;14.90;4.43;;;7.10;99.90;;;;;;4953597;28;20027;-67
2024/03/24 11:13:14;;;;;;;11.85;3.78;;;7.10;99.90;;;;;;4937057;28;20035;-67
2024/03/24 11:15:42;;;;;;;14.77;3.65;;;7.00;99.90;;;;;;4938682;28;20084;-68
2024/03/24 11:18:24;;;;;;;13.98;4.07;;;6.90;99.90;;;;;;4942304;28;20032;-68
2024/03/24 11:20:54;;;;;;;12.38;5.97;;;6.70;99.90;;;;;;4945042;29;20031;-68
2024/03/24 11:23:32;;;;;;;14.57;4.70;;;6.10;99.90;;;;;;4940661;29;20032;-68
2024/03/24 11:26:01;;;;;;;13.70;3.92;;;5.60;99.90;;;;;;4940081;29;20043;-68
2024/03/24 11:28:48;;;;;;;13.27;3.85;;;5.30;99.90;;;;;;4941222;28;20031;-67
2024/03/24 11:31:14;;;;;;;10.98;3.83;;;5.30;99.90;;;;;;4940864;28;20035;-68
2024/03/24 11:33:40;;;;;;;13.35;3.35;;;5.50;99.90;;;;;;4941434;29;20024;-68
2024/03/24 11:36:18;;;;;;;13.40;4.00;;;5.80;99.90;;;;;;4945164;28;20031;-68
2024/03/24 11:38:45;;;;;;;7.82;2.80;;;6.00;99.90;;;;;;4961601;28;20454;-67
2024/03/24 11:41:15;;;;;;;8.35;3.10;;;6.10;99.90;;;;;;4961516;28;20028;-68
2024/03/24 11:43:41;;;;;;;10.23;3.00;;;6.10;99.90;;;;;;4964752;28;20027;-68
2024/03/24 11:46:12;;;;;;;9.50;3.20;;;6.20;99.90;;;;;;4950857;28;20100;-68
2024/03/24 11:48:41;;;;;;;6.35;2.03;;;6.30;99.90;;;;;;4956014;28;20650;-68
2024/03/24 11:51:07;;;;;;;15.23;3.28;;;6.20;99.90;;;;;;4937647;28;20024;-68
2024/03/24 11:53:34;;;;;;;15.23;5.05;;;6.20;99.90;;;;;;4939979;28;20177;-68
2024/03/24 11:56:01;;;;;;;11.80;4.15;;;6.20;99.90;;;;;;4941643;28;20031;-68
2024/03/24 11:58:27;;;;;;;12.57;5.15;;;6.00;99.90;;;;;;4941906;28;20032;-68
2024/03/24 12:00:53;;;;;;;15.63;4.55;;;5.90;99.90;;;;;;4936304;28;20068;-69
2024/03/24 12:03:19;;;;;;;14.00;4.63;;;5.90;99.90;;;;;;4939873;28;20157;-69
2024/03/24 12:05:45;;;;;;;12.75;5.07;;;5.70;99.90;;;;;;4940588;29;20055;-67
2024/03/24 12:08:11;;;;;;;9.10;3.38;;;5.50;99.90;;;;;;4958687;28;20062;-67
2024/03/24 12:10:37;;;;;;;11.60;3.90;;;5.40;99.90;;;;;;4955488;28;20080;-67
2024/03/24 12:13:03;;;;;;;10.07;3.67;;;5.40;99.90;;;;;;4940811;28;20394;-67
2024/03/24 12:15:30;;;;;;;8.63;3.70;;;5.50;99.90;;;;;;4939017;28;20042;-68
2024/03/24 12:18:12;;;;;;;8.60;3.47;;;5.50;99.90;;;;;;4954057;28;20024;-68
2024/03/24 12:20:38;;;;;;;10.35;4.10;;;5.70;99.90;;;;;;4948257;28;20027;-67
2024/03/24 12:23:04;;;;;;;6.60;2.05;;;6.00;99.90;;;;;;4947530;29;20375;-67
2024/03/24 12:25:30;;;;;;;6.47;1.80;;;6.20;99.90;;;;;;4941416;28;20030;-67
2024/03/24 12:27:56;;;;;;;7.38;2.42;;;6.50;99.90;;;;;;4934656;28;20031;-69
2024/03/24 12:30:23;;;;;;;8.15;2.25;;;7.00;99.90;;;;;;4941889;28;20028;-69
2024/03/24 12:32:50;;;;;;;4.10;1.50;;;7.30;99.90;;;;;;4943055;28;20130;-67
2024/03/24 12:35:17;;;;;;;6.05;1.92;;;7.60;99.90;;;;;;4939452;28;20406;-66
2024/03/24 12:37:45;;;;;;;4.60;1.70;;;8.30;99.90;;;;;;4969846;28;20032;-67
2024/03/24 12:40:15;;;;;;;4.90;1.65;;;8.70;99.90;;;;;;4942173;28;20100;-67
2024/03/24 12:42:41;;;;;;;9.13;2.00;;;9.50;99.90;;;;;;4938752;28;20459;-66